sensor_id;sensor_type;location;lat;lon;timestamp;temperature;humidity
21275;DHT22;36472;52.170;20.884;2023-07-20T00:00:32;33.20;44.20
21275;DHT22;36472;52.170;20.884;2023-07-20T00:03:22;33.20;43.90
21275;DHT22;36472;52.170;20.884;2023-07-20T00:05:53;33.10;44.10
21275;DHT22;36472;52.170;20.884;2023-07-20T00:08:21;33.10;44.30
21275;DHT22;36472;52.170;20.884;2023-07-20T00:10:50;33.10;44.40
21275;DHT22;36472;52.170;20.884;2023-07-20T00:13:19;33.10;44.60
21275;DHT22;36472;52.170;20.884;2023-07-20T00:15:48;33.00;44.50
21275;DHT22;36472;52.170;20.884;2023-07-20T00:18:17;33.00;44.50
21275;DHT22;36472;52.170;20.884;2023-07-20T00:20:50;33.00;44.60
21275;DHT22;36472;52.170;20.884;2023-07-20T00:23:19;32.90;44.60
21275;DHT22;36472;52.170;20.884;2023-07-20T00:25:50;32.90;44.60
21275;DHT22;36472;52.170;20.884;2023-07-20T00:28:19;32.90;44.60
21275;DHT22;36472;52.170;20.884;2023-07-20T00:35:23;32.80;44.50
21275;DHT22;36472;52.170;20.884;2023-07-20T00:37:54;32.90;44.80
21275;DHT22;36472;52.170;20.884;2023-07-20T00:40:23;32.90;44.70
21275;DHT22;36472;52.170;20.884;2023-07-20T00:42:52;32.90;44.80
21275;DHT22;36472;52.170;20.884;2023-07-20T00:49:59;33.00;44.90
21275;DHT22;36472;52.170;20.884;2023-07-20T00:52:31;33.00;44.40
21275;DHT22;36472;52.170;20.884;2023-07-20T00:55:03;33.00;44.60
21275;DHT22;36472;52.170;20.884;2023-07-20T00:57:32;33.00;44.40
21275;DHT22;36472;52.170;20.884;2023-07-20T01:00:02;33.00;44.60
21275;DHT22;36472;52.170;20.884;2023-07-20T01:02:31;33.10;44.60
21275;DHT22;36472;52.170;20.884;2023-07-20T01:05:00;33.00;44.80
21275;DHT22;36472;52.170;20.884;2023-07-20T01:07:32;33.00;44.30
21275;DHT22;36472;52.170;20.884;2023-07-20T01:10:12;33.00;44.60
21275;DHT22;36472;52.170;20.884;2023-07-20T01:12:48;33.00;44.80
21275;DHT22;36472;52.170;20.884;2023-07-20T01:15:21;33.00;44.90
21275;DHT22;36472;52.170;20.884;2023-07-20T01:17:50;33.00;44.80
21275;DHT22;36472;52.170;20.884;2023-07-20T01:20:21;33.00;44.90
21275;DHT22;36472;52.170;20.884;2023-07-20T01:23:07;33.10;44.70
21275;DHT22;36472;52.170;20.884;2023-07-20T01:26:08;33.10;44.40
21275;DHT22;36472;52.170;20.884;2023-07-20T01:29:17;33.10;44.70
21275;DHT22;36472;52.170;20.884;2023-07-20T01:31:54;33.00;44.60
21275;DHT22;36472;52.170;20.884;2023-07-20T01:34:27;33.00;44.60
21275;DHT22;36472;52.170;20.884;2023-07-20T01:36:58;32.90;44.80
21275;DHT22;36472;52.170;20.884;2023-07-20T01:39:29;32.90;44.80
21275;DHT22;36472;52.170;20.884;2023-07-20T01:42:00;32.90;45.00
21275;DHT22;36472;52.170;20.884;2023-07-20T01:44:29;32.80;45.00
21275;DHT22;36472;52.170;20.884;2023-07-20T01:47:00;32.80;45.10
21275;DHT22;36472;52.170;20.884;2023-07-20T01:49:28;32.80;45.20
21275;DHT22;36472;52.170;20.884;2023-07-20T01:51:59;32.80;45.50
21275;DHT22;36472;52.170;20.884;2023-07-20T01:54:28;32.70;45.20
21275;DHT22;36472;52.170;20.884;2023-07-20T01:56:57;32.70;45.20
21275;DHT22;36472;52.170;20.884;2023-07-20T01:59:26;32.60;45.40
21275;DHT22;36472;52.170;20.884;2023-07-20T02:01:55;32.60;45.40
21275;DHT22;36472;52.170;20.884;2023-07-20T02:04:25;32.60;45.50
21275;DHT22;36472;52.170;20.884;2023-07-20T02:06:54;32.60;45.60
21275;DHT22;36472;52.170;20.884;2023-07-20T02:09:23;32.60;46.00
21275;DHT22;36472;52.170;20.884;2023-07-20T02:11:52;32.60;45.80
21275;DHT22;36472;52.170;20.884;2023-07-20T02:14:21;32.50;45.50
21275;DHT22;36472;52.170;20.884;2023-07-20T02:16:51;32.60;45.60
21275;DHT22;36472;52.170;20.884;2023-07-20T02:19:29;32.60;45.60
21275;DHT22;36472;52.170;20.884;2023-07-20T02:21:59;32.60;45.60
21275;DHT22;36472;52.170;20.884;2023-07-20T02:24:28;32.60;45.80
21275;DHT22;36472;52.170;20.884;2023-07-20T02:26:57;32.60;46.00
21275;DHT22;36472;52.170;20.884;2023-07-20T02:29:26;32.60;45.90
21275;DHT22;36472;52.170;20.884;2023-07-20T02:31:55;32.60;45.90
21275;DHT22;36472;52.170;20.884;2023-07-20T02:34:24;32.60;45.70
21275;DHT22;36472;52.170;20.884;2023-07-20T02:36:55;32.60;45.60
21275;DHT22;36472;52.170;20.884;2023-07-20T02:39:27;32.50;45.60
21275;DHT22;36472;52.170;20.884;2023-07-20T02:41:56;32.60;45.80
21275;DHT22;36472;52.170;20.884;2023-07-20T02:44:25;32.60;45.60
21275;DHT22;36472;52.170;20.884;2023-07-20T02:46:54;32.60;45.30
21275;DHT22;36472;52.170;20.884;2023-07-20T02:49:23;32.60;45.40
21275;DHT22;36472;52.170;20.884;2023-07-20T02:51:54;32.60;45.30
21275;DHT22;36472;52.170;20.884;2023-07-20T02:54:23;32.60;45.10
21275;DHT22;36472;52.170;20.884;2023-07-20T02:56:52;32.70;45.10
21275;DHT22;36472;52.170;20.884;2023-07-20T02:59:21;32.70;45.00
21275;DHT22;36472;52.170;20.884;2023-07-20T03:01:50;32.70;45.10
21275;DHT22;36472;52.170;20.884;2023-07-20T03:04:19;32.70;45.10
21275;DHT22;36472;52.170;20.884;2023-07-20T03:06:48;32.70;45.00
21275;DHT22;36472;52.170;20.884;2023-07-20T03:09:18;32.70;44.90
21275;DHT22;36472;52.170;20.884;2023-07-20T03:11:48;32.70;45.10
21275;DHT22;36472;52.170;20.884;2023-07-20T03:14:18;32.70;45.30
21275;DHT22;36472;52.170;20.884;2023-07-20T03:16:47;32.70;45.40
21275;DHT22;36472;52.170;20.884;2023-07-20T03:19:16;32.70;45.10
21275;DHT22;36472;52.170;20.884;2023-07-20T03:21:45;32.80;45.10
21275;DHT22;36472;52.170;20.884;2023-07-20T03:24:14;32.70;45.20
21275;DHT22;36472;52.170;20.884;2023-07-20T03:26:48;32.70;45.20
21275;DHT22;36472;52.170;20.884;2023-07-20T03:29:19;32.70;45.10
21275;DHT22;36472;52.170;20.884;2023-07-20T03:31:48;32.70;45.30
21275;DHT22;36472;52.170;20.884;2023-07-20T03:34:18;32.70;45.30
21275;DHT22;36472;52.170;20.884;2023-07-20T03:41:19;32.70;45.90
21275;DHT22;36472;52.170;20.884;2023-07-20T03:43:51;32.70;46.40
21275;DHT22;36472;52.170;20.884;2023-07-20T03:55:26;32.60;46.90
21275;DHT22;36472;52.170;20.884;2023-07-20T03:57:55;32.60;47.10
21275;DHT22;36472;52.170;20.884;2023-07-20T04:00:26;32.50;47.30
21275;DHT22;36472;52.170;20.884;2023-07-20T04:02:55;32.50;47.80
21275;DHT22;36472;52.170;20.884;2023-07-20T04:05:24;32.60;47.80
21275;DHT22;36472;52.170;20.884;2023-07-20T04:07:53;32.50;48.10
21275;DHT22;36472;52.170;20.884;2023-07-20T04:10:22;32.50;48.10
21275;DHT22;36472;52.170;20.884;2023-07-20T04:12:52;32.40;49.30
21275;DHT22;36472;52.170;20.884;2023-07-20T04:19:55;32.30;49.50
21275;DHT22;36472;52.170;20.884;2023-07-20T04:22:24;32.30;49.50
21275;DHT22;36472;52.170;20.884;2023-07-20T04:24:53;32.30;49.60
21275;DHT22;36472;52.170;20.884;2023-07-20T04:27:22;32.20;49.60
21275;DHT22;36472;52.170;20.884;2023-07-20T04:29:51;32.20;50.20
21275;DHT22;36472;52.170;20.884;2023-07-20T04:32:20;32.20;50.20
21275;DHT22;36472;52.170;20.884;2023-07-20T04:34:50;32.20;50.50
21275;DHT22;36472;52.170;20.884;2023-07-20T04:42:11;32.20;50.50
21275;DHT22;36472;52.170;20.884;2023-07-20T04:48:51;32.20;50.70
21275;DHT22;36472;52.170;20.884;2023-07-20T04:51:20;32.20;50.50
21275;DHT22;36472;52.170;20.884;2023-07-20T04:53:54;32.20;50.70
21275;DHT22;36472;52.170;20.884;2023-07-20T05:01:00;32.30;50.80
21275;DHT22;36472;52.170;20.884;2023-07-20T05:08:00;32.30;50.70
21275;DHT22;36472;52.170;20.884;2023-07-20T05:10:29;32.30;49.90
21275;DHT22;36472;52.170;20.884;2023-07-20T05:13:00;32.30;50.20
21275;DHT22;36472;52.170;20.884;2023-07-20T05:15:28;32.30;50.60
21275;DHT22;36472;52.170;20.884;2023-07-20T05:18:00;32.30;50.40
21275;DHT22;36472;52.170;20.884;2023-07-20T05:20:29;32.30;50.20
21275;DHT22;36472;52.170;20.884;2023-07-20T05:23:00;32.30;50.30
21275;DHT22;36472;52.170;20.884;2023-07-20T05:30:03;32.40;49.80
21275;DHT22;36472;52.170;20.884;2023-07-20T05:32:33;32.40;50.10
21275;DHT22;36472;52.170;20.884;2023-07-20T05:35:05;32.40;49.80
21275;DHT22;36472;52.170;20.884;2023-07-20T05:37:35;32.50;50.30
21275;DHT22;36472;52.170;20.884;2023-07-20T05:40:06;32.40;50.00
21275;DHT22;36472;52.170;20.884;2023-07-20T05:42:37;32.50;49.90
21275;DHT22;36472;52.170;20.884;2023-07-20T05:45:07;32.50;50.00
21275;DHT22;36472;52.170;20.884;2023-07-20T05:47:36;32.50;50.10
21275;DHT22;36472;52.170;20.884;2023-07-20T05:50:07;32.50;49.60
21275;DHT22;36472;52.170;20.884;2023-07-20T05:52:36;32.50;49.60
21275;DHT22;36472;52.170;20.884;2023-07-20T05:55:07;32.50;49.80
21275;DHT22;36472;52.170;20.884;2023-07-20T05:57:36;32.50;49.80
21275;DHT22;36472;52.170;20.884;2023-07-20T06:00:10;32.60;50.00
21275;DHT22;36472;52.170;20.884;2023-07-20T06:02:44;32.60;49.80
21275;DHT22;36472;52.170;20.884;2023-07-20T06:05:17;32.60;49.80
21275;DHT22;36472;52.170;20.884;2023-07-20T06:07:46;32.60;49.80
21275;DHT22;36472;52.170;20.884;2023-07-20T06:10:15;32.60;49.50
21275;DHT22;36472;52.170;20.884;2023-07-20T06:12:45;32.60;49.80
21275;DHT22;36472;52.170;20.884;2023-07-20T06:15:28;32.70;49.50
21275;DHT22;36472;52.170;20.884;2023-07-20T06:22:35;32.60;50.00
21275;DHT22;36472;52.170;20.884;2023-07-20T06:25:04;32.70;49.30
21275;DHT22;36472;52.170;20.884;2023-07-20T06:27:34;32.70;49.70
21275;DHT22;36472;52.170;20.884;2023-07-20T06:30:04;32.70;49.60
21275;DHT22;36472;52.170;20.884;2023-07-20T06:32:34;32.70;49.80
21275;DHT22;36472;52.170;20.884;2023-07-20T06:35:04;32.70;49.60
21275;DHT22;36472;52.170;20.884;2023-07-20T06:37:35;32.70;49.50
21275;DHT22;36472;52.170;20.884;2023-07-20T06:40:05;32.70;49.70
21275;DHT22;36472;52.170;20.884;2023-07-20T06:42:39;32.70;49.70
21275;DHT22;36472;52.170;20.884;2023-07-20T06:45:11;32.70;49.80
21275;DHT22;36472;52.170;20.884;2023-07-20T06:47:40;32.60;49.80
21275;DHT22;36472;52.170;20.884;2023-07-20T06:50:10;32.70;49.50
21275;DHT22;36472;52.170;20.884;2023-07-20T06:52:45;32.60;49.40
21275;DHT22;36472;52.170;20.884;2023-07-20T06:55:15;32.70;49.40
21275;DHT22;36472;52.170;20.884;2023-07-20T06:57:50;32.60;49.60
21275;DHT22;36472;52.170;20.884;2023-07-20T07:04:57;32.70;49.40
21275;DHT22;36472;52.170;20.884;2023-07-20T07:07:47;32.70;49.60
21275;DHT22;36472;52.170;20.884;2023-07-20T07:10:16;32.70;49.30
21275;DHT22;36472;52.170;20.884;2023-07-20T07:12:45;32.70;49.20
21275;DHT22;36472;52.170;20.884;2023-07-20T07:15:14;32.70;49.40
21275;DHT22;36472;52.170;20.884;2023-07-20T07:17:44;32.70;49.60
21275;DHT22;36472;52.170;20.884;2023-07-20T07:20:13;32.70;49.50
21275;DHT22;36472;52.170;20.884;2023-07-20T07:22:44;32.70;49.50
21275;DHT22;36472;52.170;20.884;2023-07-20T07:25:15;32.70;49.50
21275;DHT22;36472;52.170;20.884;2023-07-20T07:32:23;32.70;49.60
21275;DHT22;36472;52.170;20.884;2023-07-20T07:34:52;32.70;49.70
21275;DHT22;36472;52.170;20.884;2023-07-20T07:37:22;32.70;49.80
21275;DHT22;36472;52.170;20.884;2023-07-20T07:39:51;32.70;49.90
21275;DHT22;36472;52.170;20.884;2023-07-20T07:42:21;32.70;49.90
21275;DHT22;36472;52.170;20.884;2023-07-20T07:44:51;32.70;49.90
21275;DHT22;36472;52.170;20.884;2023-07-20T07:47:20;32.70;49.90
21275;DHT22;36472;52.170;20.884;2023-07-20T07:49:49;32.70;50.00
21275;DHT22;36472;52.170;20.884;2023-07-20T07:52:18;32.70;50.00
21275;DHT22;36472;52.170;20.884;2023-07-20T07:54:48;32.70;50.10
21275;DHT22;36472;52.170;20.884;2023-07-20T07:57:17;32.70;50.10
21275;DHT22;36472;52.170;20.884;2023-07-20T07:59:47;32.60;50.10
21275;DHT22;36472;52.170;20.884;2023-07-20T08:02:17;32.60;50.10
21275;DHT22;36472;52.170;20.884;2023-07-20T08:04:45;32.60;50.40
21275;DHT22;36472;52.170;20.884;2023-07-20T08:07:14;32.70;50.30
21275;DHT22;36472;52.170;20.884;2023-07-20T08:09:43;32.70;50.30
21275;DHT22;36472;52.170;20.884;2023-07-20T08:12:13;32.70;50.20
21275;DHT22;36472;52.170;20.884;2023-07-20T08:14:44;32.70;50.70
21275;DHT22;36472;52.170;20.884;2023-07-20T08:17:15;32.70;50.30
21275;DHT22;36472;52.170;20.884;2023-07-20T08:19:45;32.70;49.90
21275;DHT22;36472;52.170;20.884;2023-07-20T08:22:15;32.70;49.90
21275;DHT22;36472;52.170;20.884;2023-07-20T08:24:44;32.70;50.10
21275;DHT22;36472;52.170;20.884;2023-07-20T08:27:13;32.70;50.40
21275;DHT22;36472;52.170;20.884;2023-07-20T08:29:41;32.70;50.00
21275;DHT22;36472;52.170;20.884;2023-07-20T08:32:12;32.70;50.40
21275;DHT22;36472;52.170;20.884;2023-07-20T08:34:42;32.70;50.10
21275;DHT22;36472;52.170;20.884;2023-07-20T08:37:11;32.70;49.90
21275;DHT22;36472;52.170;20.884;2023-07-20T08:39:40;32.70;49.60
21275;DHT22;36472;52.170;20.884;2023-07-20T08:42:09;32.70;49.70
21275;DHT22;36472;52.170;20.884;2023-07-20T08:44:39;32.70;50.20
21275;DHT22;36472;52.170;20.884;2023-07-20T08:47:14;32.70;50.10
21275;DHT22;36472;52.170;20.884;2023-07-20T08:49:47;32.70;50.10
21275;DHT22;36472;52.170;20.884;2023-07-20T08:52:17;32.60;49.50
21275;DHT22;36472;52.170;20.884;2023-07-20T08:54:46;32.60;49.50
21275;DHT22;36472;52.170;20.884;2023-07-20T08:57:16;32.60;49.70
21275;DHT22;36472;52.170;20.884;2023-07-20T08:59:46;32.60;50.00
21275;DHT22;36472;52.170;20.884;2023-07-20T09:02:18;32.60;49.80
21275;DHT22;36472;52.170;20.884;2023-07-20T09:04:50;32.60;49.30
21275;DHT22;36472;52.170;20.884;2023-07-20T09:07:19;32.50;49.10
21275;DHT22;36472;52.170;20.884;2023-07-20T09:09:48;32.50;49.50
21275;DHT22;36472;52.170;20.884;2023-07-20T09:12:17;32.50;49.60
21275;DHT22;36472;52.170;20.884;2023-07-20T09:14:46;32.50;50.50
21275;DHT22;36472;52.170;20.884;2023-07-20T09:17:15;32.60;50.60
21275;DHT22;36472;52.170;20.884;2023-07-20T09:19:49;32.50;49.50
21275;DHT22;36472;52.170;20.884;2023-07-20T09:22:18;32.60;49.90
21275;DHT22;36472;52.170;20.884;2023-07-20T09:24:47;32.50;49.40
21275;DHT22;36472;52.170;20.884;2023-07-20T09:27:17;32.60;49.60
21275;DHT22;36472;52.170;20.884;2023-07-20T09:29:50;32.60;49.70
21275;DHT22;36472;52.170;20.884;2023-07-20T09:32:20;32.60;50.20
21275;DHT22;36472;52.170;20.884;2023-07-20T09:34:54;32.60;50.00
21275;DHT22;36472;52.170;20.884;2023-07-20T09:37:23;32.70;50.10
21275;DHT22;36472;52.170;20.884;2023-07-20T09:39:54;32.80;49.40
21275;DHT22;36472;52.170;20.884;2023-07-20T09:42:26;32.90;49.30
21275;DHT22;36472;52.170;20.884;2023-07-20T09:44:58;32.90;49.10
21275;DHT22;36472;52.170;20.884;2023-07-20T09:47:27;33.00;49.00
21275;DHT22;36472;52.170;20.884;2023-07-20T09:49:59;33.00;48.50
21275;DHT22;36472;52.170;20.884;2023-07-20T09:52:32;33.10;48.90
21275;DHT22;36472;52.170;20.884;2023-07-20T09:55:06;33.20;48.60
21275;DHT22;36472;52.170;20.884;2023-07-20T09:57:36;33.20;48.70
21275;DHT22;36472;52.170;20.884;2023-07-20T10:00:06;33.20;48.20
21275;DHT22;36472;52.170;20.884;2023-07-20T10:02:44;33.30;47.60
21275;DHT22;36472;52.170;20.884;2023-07-20T10:05:16;33.30;47.20
21275;DHT22;36472;52.170;20.884;2023-07-20T10:07:48;33.30;47.00
21275;DHT22;36472;52.170;20.884;2023-07-20T10:10:41;33.30;47.20
21275;DHT22;36472;52.170;20.884;2023-07-20T10:13:16;33.20;47.60
21275;DHT22;36472;52.170;20.884;2023-07-20T10:15:49;33.20;47.40
21275;DHT22;36472;52.170;20.884;2023-07-20T10:18:27;33.20;47.60
21275;DHT22;36472;52.170;20.884;2023-07-20T10:21:00;33.20;48.00
21275;DHT22;36472;52.170;20.884;2023-07-20T10:23:34;33.20;47.90
21275;DHT22;36472;52.170;20.884;2023-07-20T10:26:03;33.20;48.50
21275;DHT22;36472;52.170;20.884;2023-07-20T10:28:33;33.20;48.80
21275;DHT22;36472;52.170;20.884;2023-07-20T10:31:02;33.20;49.10
21275;DHT22;36472;52.170;20.884;2023-07-20T10:33:33;33.20;49.30
21275;DHT22;36472;52.170;20.884;2023-07-20T10:36:05;33.30;48.60
21275;DHT22;36472;52.170;20.884;2023-07-20T10:38:41;33.40;48.60
21275;DHT22;36472;52.170;20.884;2023-07-20T10:41:18;33.60;47.60
21275;DHT22;36472;52.170;20.884;2023-07-20T10:43:49;33.90;47.60
21275;DHT22;36472;52.170;20.884;2023-07-20T10:46:35;34.20;47.00
21275;DHT22;36472;52.170;20.884;2023-07-20T10:49:13;34.50;46.50
21275;DHT22;36472;52.170;20.884;2023-07-20T10:51:45;34.70;45.10
21275;DHT22;36472;52.170;20.884;2023-07-20T10:54:34;34.80;45.10
21275;DHT22;36472;52.170;20.884;2023-07-20T10:57:24;35.00;44.80
21275;DHT22;36472;52.170;20.884;2023-07-20T11:00:09;35.00;44.10
21275;DHT22;36472;52.170;20.884;2023-07-20T11:02:46;35.10;44.60
21275;DHT22;36472;52.170;20.884;2023-07-20T11:05:39;35.10;44.20
21275;DHT22;36472;52.170;20.884;2023-07-20T11:12:24;35.00;44.10
21275;DHT22;36472;52.170;20.884;2023-07-20T11:14:54;34.90;44.70
21275;DHT22;36472;52.170;20.884;2023-07-20T11:17:29;34.90;45.50
21275;DHT22;36472;52.170;20.884;2023-07-20T11:20:00;34.80;45.80
21275;DHT22;36472;52.170;20.884;2023-07-20T11:22:33;34.80;44.30
21275;DHT22;36472;52.170;20.884;2023-07-20T11:25:03;34.90;44.70
21275;DHT22;36472;52.170;20.884;2023-07-20T11:27:44;34.90;45.20
21275;DHT22;36472;52.170;20.884;2023-07-20T11:30:16;34.90;44.50
21275;DHT22;36472;52.170;20.884;2023-07-20T11:32:48;34.90;44.30
21275;DHT22;36472;52.170;20.884;2023-07-20T11:35:16;34.90;43.90
21275;DHT22;36472;52.170;20.884;2023-07-20T11:37:45;34.90;44.50
21275;DHT22;36472;52.170;20.884;2023-07-20T11:40:15;34.90;44.30
21275;DHT22;36472;52.170;20.884;2023-07-20T11:42:46;34.90;44.00
21275;DHT22;36472;52.170;20.884;2023-07-20T11:45:20;34.90;44.60
21275;DHT22;36472;52.170;20.884;2023-07-20T11:47:49;34.90;44.20
21275;DHT22;36472;52.170;20.884;2023-07-20T11:50:18;34.90;44.50
21275;DHT22;36472;52.170;20.884;2023-07-20T11:52:47;34.90;44.30
21275;DHT22;36472;52.170;20.884;2023-07-20T11:55:16;34.90;44.30
21275;DHT22;36472;52.170;20.884;2023-07-20T11:58:02;35.00;43.90
21275;DHT22;36472;52.170;20.884;2023-07-20T12:00:32;35.00;44.60
21275;DHT22;36472;52.170;20.884;2023-07-20T12:03:05;35.00;44.30
21275;DHT22;36472;52.170;20.884;2023-07-20T12:05:35;35.10;44.50
21275;DHT22;36472;52.170;20.884;2023-07-20T12:08:26;35.10;44.90
21275;DHT22;36472;52.170;20.884;2023-07-20T12:10:55;35.20;44.00
21275;DHT22;36472;52.170;20.884;2023-07-20T12:13:35;35.20;43.90
21275;DHT22;36472;52.170;20.884;2023-07-20T12:16:12;35.30;44.60
21275;DHT22;36472;52.170;20.884;2023-07-20T12:18:43;35.30;43.90
21275;DHT22;36472;52.170;20.884;2023-07-20T12:21:12;35.30;43.70
21275;DHT22;36472;52.170;20.884;2023-07-20T12:23:42;35.40;43.60
21275;DHT22;36472;52.170;20.884;2023-07-20T12:26:11;35.40;44.00
21275;DHT22;36472;52.170;20.884;2023-07-20T12:28:44;35.30;44.10
21275;DHT22;36472;52.170;20.884;2023-07-20T12:31:13;35.40;44.80
21275;DHT22;36472;52.170;20.884;2023-07-20T12:33:42;35.40;44.50
21275;DHT22;36472;52.170;20.884;2023-07-20T12:36:11;35.40;45.20
21275;DHT22;36472;52.170;20.884;2023-07-20T12:38:40;35.50;45.20
21275;DHT22;36472;52.170;20.884;2023-07-20T12:41:10;35.60;44.10
21275;DHT22;36472;52.170;20.884;2023-07-20T12:43:42;35.60;43.60
21275;DHT22;36472;52.170;20.884;2023-07-20T12:46:13;35.60;44.00
21275;DHT22;36472;52.170;20.884;2023-07-20T12:48:42;35.60;44.20
21275;DHT22;36472;52.170;20.884;2023-07-20T12:51:15;35.60;44.20
21275;DHT22;36472;52.170;20.884;2023-07-20T12:53:44;35.60;44.50
21275;DHT22;36472;52.170;20.884;2023-07-20T12:56:13;35.50;44.00
21275;DHT22;36472;52.170;20.884;2023-07-20T12:58:47;35.50;44.20
21275;DHT22;36472;52.170;20.884;2023-07-20T13:01:17;35.50;44.40
21275;DHT22;36472;52.170;20.884;2023-07-20T13:03:46;35.50;45.10
21275;DHT22;36472;52.170;20.884;2023-07-20T13:06:18;35.60;45.30
21275;DHT22;36472;52.170;20.884;2023-07-20T13:08:50;35.60;45.60
21275;DHT22;36472;52.170;20.884;2023-07-20T13:11:23;35.50;46.10
21275;DHT22;36472;52.170;20.884;2023-07-20T13:13:54;35.50;45.80
21275;DHT22;36472;52.170;20.884;2023-07-20T13:16:23;35.40;45.40
21275;DHT22;36472;52.170;20.884;2023-07-20T13:18:52;35.40;46.40
21275;DHT22;36472;52.170;20.884;2023-07-20T13:21:21;35.40;46.40
21275;DHT22;36472;52.170;20.884;2023-07-20T13:23:53;35.40;46.30
21275;DHT22;36472;52.170;20.884;2023-07-20T13:26:22;35.40;45.80
21275;DHT22;36472;52.170;20.884;2023-07-20T13:28:51;35.40;45.40
21275;DHT22;36472;52.170;20.884;2023-07-20T13:31:23;35.40;44.60
21275;DHT22;36472;52.170;20.884;2023-07-20T13:33:55;35.40;45.60
21275;DHT22;36472;52.170;20.884;2023-07-20T13:36:27;35.40;45.70
21275;DHT22;36472;52.170;20.884;2023-07-20T13:38:58;35.50;45.10
21275;DHT22;36472;52.170;20.884;2023-07-20T13:41:27;35.50;44.60
21275;DHT22;36472;52.170;20.884;2023-07-20T13:43:57;35.50;44.70
21275;DHT22;36472;52.170;20.884;2023-07-20T13:46:27;35.40;45.20
21275;DHT22;36472;52.170;20.884;2023-07-20T13:48:59;35.40;44.80
21275;DHT22;36472;52.170;20.884;2023-07-20T13:51:28;35.40;43.90
21275;DHT22;36472;52.170;20.884;2023-07-20T13:53:58;35.40;43.70
21275;DHT22;36472;52.170;20.884;2023-07-20T13:56:46;35.30;44.30
21275;DHT22;36472;52.170;20.884;2023-07-20T13:59:16;35.30;44.30
21275;DHT22;36472;52.170;20.884;2023-07-20T14:01:47;35.30;44.20
21275;DHT22;36472;52.170;20.884;2023-07-20T14:04:16;35.20;44.80
21275;DHT22;36472;52.170;20.884;2023-07-20T14:06:46;35.20;44.20
21275;DHT22;36472;52.170;20.884;2023-07-20T14:09:15;35.20;44.30
21275;DHT22;36472;52.170;20.884;2023-07-20T14:11:44;35.20;44.20
21275;DHT22;36472;52.170;20.884;2023-07-20T14:14:16;35.20;43.70
21275;DHT22;36472;52.170;20.884;2023-07-20T14:16:46;35.20;43.40
21275;DHT22;36472;52.170;20.884;2023-07-20T14:19:15;35.20;43.80
21275;DHT22;36472;52.170;20.884;2023-07-20T14:21:44;35.20;43.40
21275;DHT22;36472;52.170;20.884;2023-07-20T14:24:13;35.20;43.70
21275;DHT22;36472;52.170;20.884;2023-07-20T14:26:45;35.20;43.90
21275;DHT22;36472;52.170;20.884;2023-07-20T14:29:18;35.20;44.00
21275;DHT22;36472;52.170;20.884;2023-07-20T14:31:53;35.10;44.40
21275;DHT22;36472;52.170;20.884;2023-07-20T14:34:22;35.10;44.50
21275;DHT22;36472;52.170;20.884;2023-07-20T14:36:51;35.00;44.80
21275;DHT22;36472;52.170;20.884;2023-07-20T14:39:20;35.10;44.80
21275;DHT22;36472;52.170;20.884;2023-07-20T14:41:50;35.00;44.50
21275;DHT22;36472;52.170;20.884;2023-07-20T14:44:19;35.00;44.80
21275;DHT22;36472;52.170;20.884;2023-07-20T14:46:48;35.00;45.00
21275;DHT22;36472;52.170;20.884;2023-07-20T14:49:39;34.90;45.00
21275;DHT22;36472;52.170;20.884;2023-07-20T14:52:08;34.90;44.90
21275;DHT22;36472;52.170;20.884;2023-07-20T14:54:40;34.90;43.00
21275;DHT22;36472;52.170;20.884;2023-07-20T14:57:09;34.90;43.00
21275;DHT22;36472;52.170;20.884;2023-07-20T14:59:42;35.00;42.30
21275;DHT22;36472;52.170;20.884;2023-07-20T15:02:12;35.00;42.30
21275;DHT22;36472;52.170;20.884;2023-07-20T15:04:47;35.00;42.20
21275;DHT22;36472;52.170;20.884;2023-07-20T15:07:17;35.10;41.70
21275;DHT22;36472;52.170;20.884;2023-07-20T15:09:47;35.20;41.40
21275;DHT22;36472;52.170;20.884;2023-07-20T15:12:16;35.20;41.40
21275;DHT22;36472;52.170;20.884;2023-07-20T15:15:02;35.20;41.30
21275;DHT22;36472;52.170;20.884;2023-07-20T15:17:33;35.20;41.50
21275;DHT22;36472;52.170;20.884;2023-07-20T15:20:07;35.30;41.50
21275;DHT22;36472;52.170;20.884;2023-07-20T15:22:38;35.40;41.40
21275;DHT22;36472;52.170;20.884;2023-07-20T15:25:09;35.40;40.30
21275;DHT22;36472;52.170;20.884;2023-07-20T15:27:39;35.50;40.80
21275;DHT22;36472;52.170;20.884;2023-07-20T15:30:17;35.50;41.20
21275;DHT22;36472;52.170;20.884;2023-07-20T15:32:49;35.50;41.90
21275;DHT22;36472;52.170;20.884;2023-07-20T15:35:22;35.60;41.50
21275;DHT22;36472;52.170;20.884;2023-07-20T15:37:51;35.60;41.20
21275;DHT22;36472;52.170;20.884;2023-07-20T15:40:20;35.60;41.30
21275;DHT22;36472;52.170;20.884;2023-07-20T15:42:49;35.70;41.60
21275;DHT22;36472;52.170;20.884;2023-07-20T15:45:21;35.70;42.20
21275;DHT22;36472;52.170;20.884;2023-07-20T15:47:51;35.80;42.10
21275;DHT22;36472;52.170;20.884;2023-07-20T15:50:22;35.80;41.60
21275;DHT22;36472;52.170;20.884;2023-07-20T15:52:50;35.80;42.30
21275;DHT22;36472;52.170;20.884;2023-07-20T15:55:20;35.90;42.20
21275;DHT22;36472;52.170;20.884;2023-07-20T15:57:48;36.00;42.60
21275;DHT22;36472;52.170;20.884;2023-07-20T16:00:18;36.00;41.80
21275;DHT22;36472;52.170;20.884;2023-07-20T16:02:47;36.00;42.30
21275;DHT22;36472;52.170;20.884;2023-07-20T16:05:16;35.90;42.80
21275;DHT22;36472;52.170;20.884;2023-07-20T16:07:47;35.90;42.70
21275;DHT22;36472;52.170;20.884;2023-07-20T16:10:16;35.90;43.10
21275;DHT22;36472;52.170;20.884;2023-07-20T16:12:45;35.80;43.80
21275;DHT22;36472;52.170;20.884;2023-07-20T16:15:14;35.80;43.00
21275;DHT22;36472;52.170;20.884;2023-07-20T16:22:35;35.60;43.00
21275;DHT22;36472;52.170;20.884;2023-07-20T16:25:06;35.40;38.70
21275;DHT22;36472;52.170;20.884;2023-07-20T16:27:37;35.00;40.10
21275;DHT22;36472;52.170;20.884;2023-07-20T16:30:07;34.60;42.10
21275;DHT22;36472;52.170;20.884;2023-07-20T16:32:36;34.40;44.00
21275;DHT22;36472;52.170;20.884;2023-07-20T16:35:07;34.00;44.60
21275;DHT22;36472;52.170;20.884;2023-07-20T16:37:38;33.60;44.90
21275;DHT22;36472;52.170;20.884;2023-07-20T16:40:10;33.20;45.60
21275;DHT22;36472;52.170;20.884;2023-07-20T16:42:42;32.90;46.40
21275;DHT22;36472;52.170;20.884;2023-07-20T16:45:32;32.60;47.30
21275;DHT22;36472;52.170;20.884;2023-07-20T16:48:01;32.40;47.60
21275;DHT22;36472;52.170;20.884;2023-07-20T16:50:30;32.20;48.70
21275;DHT22;36472;52.170;20.884;2023-07-20T16:52:59;32.00;48.70